sensor_id;sensor_type;location;lat;lon;timestamp;temperature;humidity
810;DHT22;387;48.772;9.186;2022-08-19T00:00:20;22.00;75.70
810;DHT22;387;48.772;9.186;2022-08-19T00:02:46;22.00;75.50
810;DHT22;387;48.772;9.186;2022-08-19T00:05:14;21.90;75.70
810;DHT22;387;48.772;9.186;2022-08-19T00:07:41;21.90;76.10
810;DHT22;387;48.772;9.186;2022-08-19T00:10:09;21.90;75.90
810;DHT22;387;48.772;9.186;2022-08-19T00:12:35;21.90;75.90
810;DHT22;387;48.772;9.186;2022-08-19T00:15:04;21.80;76.20
810;DHT22;387;48.772;9.186;2022-08-19T00:17:30;21.90;76.10
810;DHT22;387;48.772;9.186;2022-08-19T00:19:55;21.90;75.90
810;DHT22;387;48.772;9.186;2022-08-19T00:22:21;21.80;76.20
810;DHT22;387;48.772;9.186;2022-08-19T00:24:47;21.70;76.40
810;DHT22;387;48.772;9.186;2022-08-19T00:27:13;21.70;76.70
810;DHT22;387;48.772;9.186;2022-08-19T00:29:39;21.80;76.40
810;DHT22;387;48.772;9.186;2022-08-19T00:32:05;21.70;76.50
810;DHT22;387;48.772;9.186;2022-08-19T00:34:31;21.70;76.70
810;DHT22;387;48.772;9.186;2022-08-19T00:36:57;21.80;76.10
810;DHT22;387;48.772;9.186;2022-08-19T00:39:23;21.80;76.20
810;DHT22;387;48.772;9.186;2022-08-19T00:41:50;21.70;76.50
810;DHT22;387;48.772;9.186;2022-08-19T00:44:24;21.60;76.70
810;DHT22;387;48.772;9.186;2022-08-19T00:46:51;21.50;77.40
810;DHT22;387;48.772;9.186;2022-08-19T00:49:30;21.50;77.40
810;DHT22;387;48.772;9.186;2022-08-19T00:52:11;21.60;77.00
810;DHT22;387;48.772;9.186;2022-08-19T00:54:39;21.60;76.80
810;DHT22;387;48.772;9.186;2022-08-19T00:57:09;21.70;76.80
810;DHT22;387;48.772;9.186;2022-08-19T00:59:36;21.80;76.50
810;DHT22;387;48.772;9.186;2022-08-19T01:02:04;21.80;76.50
810;DHT22;387;48.772;9.186;2022-08-19T01:04:29;21.70;76.40
810;DHT22;387;48.772;9.186;2022-08-19T01:06:56;21.70;76.80
810;DHT22;387;48.772;9.186;2022-08-19T01:09:22;21.60;76.80
810;DHT22;387;48.772;9.186;2022-08-19T01:11:48;21.70;76.80
810;DHT22;387;48.772;9.186;2022-08-19T01:14:15;21.70;76.80
810;DHT22;387;48.772;9.186;2022-08-19T01:16:43;21.70;76.80
810;DHT22;387;48.772;9.186;2022-08-19T01:21:58;21.70;76.70
810;DHT22;387;48.772;9.186;2022-08-19T01:24:26;21.70;76.80
810;DHT22;387;48.772;9.186;2022-08-19T01:26:52;21.70;76.80
810;DHT22;387;48.772;9.186;2022-08-19T01:29:18;21.70;76.80
810;DHT22;387;48.772;9.186;2022-08-19T01:31:43;21.60;77.00
810;DHT22;387;48.772;9.186;2022-08-19T01:34:09;21.70;77.00
810;DHT22;387;48.772;9.186;2022-08-19T01:36:43;21.60;77.00
810;DHT22;387;48.772;9.186;2022-08-19T01:39:15;21.50;77.60
810;DHT22;387;48.772;9.186;2022-08-19T01:41:41;21.60;77.30
810;DHT22;387;48.772;9.186;2022-08-19T01:44:08;21.70;76.80
810;DHT22;387;48.772;9.186;2022-08-19T01:46:34;21.70;76.80
810;DHT22;387;48.772;9.186;2022-08-19T01:49:01;21.60;77.30
810;DHT22;387;48.772;9.186;2022-08-19T01:51:27;21.60;77.70
810;DHT22;387;48.772;9.186;2022-08-19T01:53:52;21.50;77.60
810;DHT22;387;48.772;9.186;2022-08-19T01:56:19;21.40;78.30
810;DHT22;387;48.772;9.186;2022-08-19T01:58:49;21.50;78.10
810;DHT22;387;48.772;9.186;2022-08-19T02:01:16;21.50;78.10
810;DHT22;387;48.772;9.186;2022-08-19T02:03:42;21.50;77.80
810;DHT22;387;48.772;9.186;2022-08-19T02:06:07;21.60;77.80
810;DHT22;387;48.772;9.186;2022-08-19T02:08:36;21.70;77.40
810;DHT22;387;48.772;9.186;2022-08-19T02:11:03;21.60;77.40
810;DHT22;387;48.772;9.186;2022-08-19T02:13:29;21.60;77.80
810;DHT22;387;48.772;9.186;2022-08-19T02:15:54;21.40;78.30
810;DHT22;387;48.772;9.186;2022-08-19T02:18:20;21.30;78.90
810;DHT22;387;48.772;9.186;2022-08-19T02:20:46;21.30;78.90
810;DHT22;387;48.772;9.186;2022-08-19T02:23:13;21.30;79.00
810;DHT22;387;48.772;9.186;2022-08-19T02:25:39;21.30;79.00
810;DHT22;387;48.772;9.186;2022-08-19T02:28:05;21.40;78.90
810;DHT22;387;48.772;9.186;2022-08-19T02:30:31;21.40;78.90
810;DHT22;387;48.772;9.186;2022-08-19T02:32:57;21.30;78.90
810;DHT22;387;48.772;9.186;2022-08-19T02:35:23;21.30;79.00
810;DHT22;387;48.772;9.186;2022-08-19T02:37:49;21.30;79.50
810;DHT22;387;48.772;9.186;2022-08-19T02:40:33;21.30;79.30
810;DHT22;387;48.772;9.186;2022-08-19T02:43:01;21.20;79.90
810;DHT22;387;48.772;9.186;2022-08-19T02:45:31;21.20;79.90
810;DHT22;387;48.772;9.186;2022-08-19T02:47:56;21.20;79.70
810;DHT22;387;48.772;9.186;2022-08-19T02:50:22;21.10;79.90
810;DHT22;387;48.772;9.186;2022-08-19T02:52:48;21.00;80.50
810;DHT22;387;48.772;9.186;2022-08-19T02:55:14;21.10;80.30
810;DHT22;387;48.772;9.186;2022-08-19T02:57:40;21.00;80.60
810;DHT22;387;48.772;9.186;2022-08-19T03:00:08;20.90;80.90
810;DHT22;387;48.772;9.186;2022-08-19T03:02:37;21.00;80.90
810;DHT22;387;48.772;9.186;2022-08-19T03:05:03;21.00;80.80
810;DHT22;387;48.772;9.186;2022-08-19T03:07:29;21.00;80.80
810;DHT22;387;48.772;9.186;2022-08-19T03:09:56;21.00;81.10
810;DHT22;387;48.772;9.186;2022-08-19T03:12:21;21.00;81.40
810;DHT22;387;48.772;9.186;2022-08-19T03:14:47;21.00;81.40
810;DHT22;387;48.772;9.186;2022-08-19T03:17:12;20.90;81.50
810;DHT22;387;48.772;9.186;2022-08-19T03:19:38;20.90;81.70
810;DHT22;387;48.772;9.186;2022-08-19T03:22:04;20.70;83.10
810;DHT22;387;48.772;9.186;2022-08-19T03:24:30;20.60;83.40
810;DHT22;387;48.772;9.186;2022-08-19T03:26:56;20.60;83.40
810;DHT22;387;48.772;9.186;2022-08-19T03:29:23;20.60;83.40
810;DHT22;387;48.772;9.186;2022-08-19T03:31:49;20.60;83.40
810;DHT22;387;48.772;9.186;2022-08-19T03:34:21;20.60;83.30
810;DHT22;387;48.772;9.186;2022-08-19T03:36:47;20.60;83.10
810;DHT22;387;48.772;9.186;2022-08-19T03:39:13;20.60;83.00
810;DHT22;387;48.772;9.186;2022-08-19T03:41:42;20.60;82.80
810;DHT22;387;48.772;9.186;2022-08-19T03:44:08;20.50;83.10
810;DHT22;387;48.772;9.186;2022-08-19T03:46:35;20.60;83.10
810;DHT22;387;48.772;9.186;2022-08-19T03:49:03;20.60;83.30
810;DHT22;387;48.772;9.186;2022-08-19T03:51:37;20.60;83.00
810;DHT22;387;48.772;9.186;2022-08-19T03:54:06;20.50;83.40
810;DHT22;387;48.772;9.186;2022-08-19T03:56:35;20.40;83.80
810;DHT22;387;48.772;9.186;2022-08-19T03:59:01;20.50;83.60
810;DHT22;387;48.772;9.186;2022-08-19T04:01:28;20.60;83.10
810;DHT22;387;48.772;9.186;2022-08-19T04:03:55;20.60;82.70
810;DHT22;387;48.772;9.186;2022-08-19T04:06:30;20.50;82.80
810;DHT22;387;48.772;9.186;2022-08-19T04:08:58;20.40;83.40
810;DHT22;387;48.772;9.186;2022-08-19T04:11:26;20.30;83.70
810;DHT22;387;48.772;9.186;2022-08-19T04:13:53;20.30;83.80
810;DHT22;387;48.772;9.186;2022-08-19T04:16:20;20.30;84.00
810;DHT22;387;48.772;9.186;2022-08-19T04:18:47;20.20;84.10
810;DHT22;387;48.772;9.186;2022-08-19T04:21:21;20.30;84.10
810;DHT22;387;48.772;9.186;2022-08-19T04:23:48;20.40;84.00
810;DHT22;387;48.772;9.186;2022-08-19T04:26:14;20.50;83.10
810;DHT22;387;48.772;9.186;2022-08-19T04:28:41;20.60;83.00
810;DHT22;387;48.772;9.186;2022-08-19T04:31:13;20.60;82.70
810;DHT22;387;48.772;9.186;2022-08-19T04:33:39;20.70;82.40
810;DHT22;387;48.772;9.186;2022-08-19T04:36:05;20.60;82.40
810;DHT22;387;48.772;9.186;2022-08-19T04:38:31;20.50;82.70
810;DHT22;387;48.772;9.186;2022-08-19T04:40:56;20.50;82.70
810;DHT22;387;48.772;9.186;2022-08-19T04:43:40;20.50;82.80
810;DHT22;387;48.772;9.186;2022-08-19T04:46:10;20.50;82.70
810;DHT22;387;48.772;9.186;2022-08-19T04:48:37;20.50;82.70
810;DHT22;387;48.772;9.186;2022-08-19T04:51:07;20.50;82.70
810;DHT22;387;48.772;9.186;2022-08-19T04:53:35;20.40;83.40
810;DHT22;387;48.772;9.186;2022-08-19T04:56:06;20.50;83.00
810;DHT22;387;48.772;9.186;2022-08-19T04:58:33;20.50;82.50
810;DHT22;387;48.772;9.186;2022-08-19T05:00:59;20.40;83.30
810;DHT22;387;48.772;9.186;2022-08-19T05:03:28;20.50;83.30
810;DHT22;387;48.772;9.186;2022-08-19T05:06:04;20.60;82.50
810;DHT22;387;48.772;9.186;2022-08-19T05:08:34;20.70;82.20
810;DHT22;387;48.772;9.186;2022-08-19T05:11:11;20.70;82.10
810;DHT22;387;48.772;9.186;2022-08-19T05:13:37;20.60;82.50
810;DHT22;387;48.772;9.186;2022-08-19T05:16:04;20.30;83.70
810;DHT22;387;48.772;9.186;2022-08-19T05:18:30;20.30;84.00
810;DHT22;387;48.772;9.186;2022-08-19T05:21:16;20.40;83.40
810;DHT22;387;48.772;9.186;2022-08-19T05:24:00;20.50;83.40
810;DHT22;387;48.772;9.186;2022-08-19T05:26:28;20.50;83.30
810;DHT22;387;48.772;9.186;2022-08-19T05:28:54;20.60;83.00
810;DHT22;387;48.772;9.186;2022-08-19T05:31:20;20.70;82.80
810;DHT22;387;48.772;9.186;2022-08-19T05:33:47;20.70;82.40
810;DHT22;387;48.772;9.186;2022-08-19T05:36:13;20.60;83.00
810;DHT22;387;48.772;9.186;2022-08-19T05:38:39;20.50;83.10
810;DHT22;387;48.772;9.186;2022-08-19T05:41:09;20.50;83.30
810;DHT22;387;48.772;9.186;2022-08-19T05:43:35;20.50;83.40
810;DHT22;387;48.772;9.186;2022-08-19T05:46:03;20.60;83.10
810;DHT22;387;48.772;9.186;2022-08-19T05:48:29;20.70;82.70
810;DHT22;387;48.772;9.186;2022-08-19T05:50:55;20.70;82.80
810;DHT22;387;48.772;9.186;2022-08-19T05:53:22;20.60;83.00
810;DHT22;387;48.772;9.186;2022-08-19T05:55:47;20.50;83.30
810;DHT22;387;48.772;9.186;2022-08-19T05:58:13;20.50;83.40
810;DHT22;387;48.772;9.186;2022-08-19T06:00:38;20.50;83.40
810;DHT22;387;48.772;9.186;2022-08-19T06:03:05;20.50;83.60
810;DHT22;387;48.772;9.186;2022-08-19T06:05:31;20.50;83.40
810;DHT22;387;48.772;9.186;2022-08-19T06:07:57;20.50;83.40
810;DHT22;387;48.772;9.186;2022-08-19T06:10:24;20.40;83.70
810;DHT22;387;48.772;9.186;2022-08-19T06:12:51;20.40;84.00
810;DHT22;387;48.772;9.186;2022-08-19T06:15:17;20.40;83.70
810;DHT22;387;48.772;9.186;2022-08-19T06:17:43;20.40;83.70
810;DHT22;387;48.772;9.186;2022-08-19T06:20:13;20.50;83.40
810;DHT22;387;48.772;9.186;2022-08-19T06:22:40;20.50;83.60
810;DHT22;387;48.772;9.186;2022-08-19T06:25:06;20.50;83.40
810;DHT22;387;48.772;9.186;2022-08-19T06:27:32;20.60;83.10
810;DHT22;387;48.772;9.186;2022-08-19T06:29:58;20.40;83.60
810;DHT22;387;48.772;9.186;2022-08-19T06:32:24;20.60;83.40
810;DHT22;387;48.772;9.186;2022-08-19T06:34:49;20.50;83.60
810;DHT22;387;48.772;9.186;2022-08-19T06:37:15;20.50;83.40
810;DHT22;387;48.772;9.186;2022-08-19T06:39:43;20.40;84.10
810;DHT22;387;48.772;9.186;2022-08-19T06:42:10;20.50;84.00
810;DHT22;387;48.772;9.186;2022-08-19T06:44:39;20.50;83.70
810;DHT22;387;48.772;9.186;2022-08-19T06:47:08;20.40;85.20
810;DHT22;387;48.772;9.186;2022-08-19T06:49:34;20.40;85.30
810;DHT22;387;48.772;9.186;2022-08-19T06:52:01;20.40;85.60
810;DHT22;387;48.772;9.186;2022-08-19T06:54:27;20.40;86.30
810;DHT22;387;48.772;9.186;2022-08-19T06:56:55;20.40;85.90
810;DHT22;387;48.772;9.186;2022-08-19T06:59:23;20.60;85.70
810;DHT22;387;48.772;9.186;2022-08-19T07:01:54;20.40;85.50
810;DHT22;387;48.772;9.186;2022-08-19T07:04:23;20.40;85.70
810;DHT22;387;48.772;9.186;2022-08-19T07:06:49;20.40;86.20
810;DHT22;387;48.772;9.186;2022-08-19T07:09:17;20.20;85.70
810;DHT22;387;48.772;9.186;2022-08-19T07:11:53;20.20;86.30
810;DHT22;387;48.772;9.186;2022-08-19T07:14:24;20.40;86.30
810;DHT22;387;48.772;9.186;2022-08-19T07:16:51;20.50;85.20
810;DHT22;387;48.772;9.186;2022-08-19T07:19:18;20.50;84.90
810;DHT22;387;48.772;9.186;2022-08-19T07:21:45;20.30;85.50
810;DHT22;387;48.772;9.186;2022-08-19T07:24:11;20.30;85.90
810;DHT22;387;48.772;9.186;2022-08-19T07:26:40;20.30;85.60
810;DHT22;387;48.772;9.186;2022-08-19T07:29:06;20.20;85.90
810;DHT22;387;48.772;9.186;2022-08-19T07:31:32;20.20;85.90
810;DHT22;387;48.772;9.186;2022-08-19T07:34:02;20.20;85.50
810;DHT22;387;48.772;9.186;2022-08-19T07:36:29;20.30;85.90
810;DHT22;387;48.772;9.186;2022-08-19T07:38:59;20.30;85.50
810;DHT22;387;48.772;9.186;2022-08-19T07:41:28;20.30;85.20
810;DHT22;387;48.772;9.186;2022-08-19T07:43:54;20.40;85.30
810;DHT22;387;48.772;9.186;2022-08-19T07:46:20;20.40;85.00
810;DHT22;387;48.772;9.186;2022-08-19T07:48:48;20.30;85.20
810;DHT22;387;48.772;9.186;2022-08-19T07:51:17;20.30;85.20
810;DHT22;387;48.772;9.186;2022-08-19T07:53:43;20.20;85.30
810;DHT22;387;48.772;9.186;2022-08-19T07:56:14;20.30;85.50
810;DHT22;387;48.772;9.186;2022-08-19T07:58:42;20.30;85.20
810;DHT22;387;48.772;9.186;2022-08-19T08:01:11;20.30;85.00
810;DHT22;387;48.772;9.186;2022-08-19T08:03:37;20.30;85.20
810;DHT22;387;48.772;9.186;2022-08-19T08:06:21;20.40;84.90
810;DHT22;387;48.772;9.186;2022-08-19T08:09:11;20.30;85.20
810;DHT22;387;48.772;9.186;2022-08-19T08:11:42;20.40;85.50
810;DHT22;387;48.772;9.186;2022-08-19T08:14:17;20.40;84.90
810;DHT22;387;48.772;9.186;2022-08-19T08:16:43;20.30;85.50
810;DHT22;387;48.772;9.186;2022-08-19T08:19:11;20.30;85.70
810;DHT22;387;48.772;9.186;2022-08-19T08:21:36;20.30;85.70
810;DHT22;387;48.772;9.186;2022-08-19T08:24:02;20.20;85.20
810;DHT22;387;48.772;9.186;2022-08-19T08:26:28;20.10;86.00
810;DHT22;387;48.772;9.186;2022-08-19T08:28:54;20.10;86.20
810;DHT22;387;48.772;9.186;2022-08-19T08:31:20;20.10;86.50
810;DHT22;387;48.772;9.186;2022-08-19T08:33:46;20.10;86.60
810;DHT22;387;48.772;9.186;2022-08-19T08:36:12;20.20;86.60
810;DHT22;387;48.772;9.186;2022-08-19T08:38:42;20.20;85.90
810;DHT22;387;48.772;9.186;2022-08-19T08:41:16;20.20;86.30
810;DHT22;387;48.772;9.186;2022-08-19T08:43:46;20.20;85.90
810;DHT22;387;48.772;9.186;2022-08-19T08:46:37;20.20;85.70
810;DHT22;387;48.772;9.186;2022-08-19T08:52:04;20.40;86.50
810;DHT22;387;48.772;9.186;2022-08-19T08:54:38;20.40;86.50
810;DHT22;387;48.772;9.186;2022-08-19T08:57:12;20.20;86.00
810;DHT22;387;48.772;9.186;2022-08-19T08:59:41;20.20;86.80
810;DHT22;387;48.772;9.186;2022-08-19T09:02:09;20.30;86.80
810;DHT22;387;48.772;9.186;2022-08-19T09:04:36;20.30;86.90
810;DHT22;387;48.772;9.186;2022-08-19T09:15:58;20.60;86.80
810;DHT22;387;48.772;9.186;2022-08-19T09:18:29;20.60;86.30
810;DHT22;387;48.772;9.186;2022-08-19T09:21:03;20.70;86.20
810;DHT22;387;48.772;9.186;2022-08-19T09:23:28;20.60;86.00
810;DHT22;387;48.772;9.186;2022-08-19T09:25:54;20.70;85.70
810;DHT22;387;48.772;9.186;2022-08-19T09:28:20;20.70;85.50
810;DHT22;387;48.772;9.186;2022-08-19T09:30:45;20.70;85.50
810;DHT22;387;48.772;9.186;2022-08-19T09:33:11;20.90;85.50
810;DHT22;387;48.772;9.186;2022-08-19T09:35:37;20.90;85.20
810;DHT22;387;48.772;9.186;2022-08-19T09:38:03;20.90;84.90
810;DHT22;387;48.772;9.186;2022-08-19T09:40:29;20.90;85.00
810;DHT22;387;48.772;9.186;2022-08-19T09:42:55;21.00;84.70
810;DHT22;387;48.772;9.186;2022-08-19T09:45:22;21.00;84.40
810;DHT22;387;48.772;9.186;2022-08-19T09:47:50;21.10;84.30
810;DHT22;387;48.772;9.186;2022-08-19T09:50:16;21.10;84.10
810;DHT22;387;48.772;9.186;2022-08-19T09:52:44;21.10;84.10
810;DHT22;387;48.772;9.186;2022-08-19T09:55:10;21.30;84.00
810;DHT22;387;48.772;9.186;2022-08-19T09:57:37;21.40;83.70
810;DHT22;387;48.772;9.186;2022-08-19T10:00:05;21.40;83.70
810;DHT22;387;48.772;9.186;2022-08-19T10:02:31;21.50;83.40
810;DHT22;387;48.772;9.186;2022-08-19T10:04:57;21.50;83.10
810;DHT22;387;48.772;9.186;2022-08-19T10:07:41;21.50;83.00
810;DHT22;387;48.772;9.186;2022-08-19T10:10:07;21.50;83.30
810;DHT22;387;48.772;9.186;2022-08-19T10:12:34;21.60;83.00
810;DHT22;387;48.772;9.186;2022-08-19T10:15:00;21.50;82.50
810;DHT22;387;48.772;9.186;2022-08-19T10:17:26;21.50;82.50
810;DHT22;387;48.772;9.186;2022-08-19T10:19:52;21.50;82.50
810;DHT22;387;48.772;9.186;2022-08-19T10:22:19;21.60;82.50
810;DHT22;387;48.772;9.186;2022-08-19T10:24:47;21.70;81.80
810;DHT22;387;48.772;9.186;2022-08-19T10:27:13;21.60;81.80
810;DHT22;387;48.772;9.186;2022-08-19T10:29:39;21.60;81.80
810;DHT22;387;48.772;9.186;2022-08-19T10:32:07;21.70;81.90
810;DHT22;387;48.772;9.186;2022-08-19T10:34:34;21.70;82.10
810;DHT22;387;48.772;9.186;2022-08-19T10:37:02;21.90;81.70
810;DHT22;387;48.772;9.186;2022-08-19T10:39:31;22.00;81.40
810;DHT22;387;48.772;9.186;2022-08-19T10:41:57;21.90;81.50
810;DHT22;387;48.772;9.186;2022-08-19T10:44:23;21.90;81.70
810;DHT22;387;48.772;9.186;2022-08-19T10:46:49;21.90;81.10
810;DHT22;387;48.772;9.186;2022-08-19T10:49:15;21.90;80.60
810;DHT22;387;48.772;9.186;2022-08-19T10:51:41;22.00;80.30
810;DHT22;387;48.772;9.186;2022-08-19T10:54:26;22.10;80.50
810;DHT22;387;48.772;9.186;2022-08-19T10:57:12;22.30;79.90
810;DHT22;387;48.772;9.186;2022-08-19T10:59:38;22.40;80.30
810;DHT22;387;48.772;9.186;2022-08-19T11:02:06;22.50;78.90
810;DHT22;387;48.772;9.186;2022-08-19T11:04:32;22.40;78.10
810;DHT22;387;48.772;9.186;2022-08-19T11:06:58;22.30;78.70
810;DHT22;387;48.772;9.186;2022-08-19T11:09:25;22.30;78.40
810;DHT22;387;48.772;9.186;2022-08-19T11:11:53;22.30;78.10
810;DHT22;387;48.772;9.186;2022-08-19T11:14:20;22.30;78.30
810;DHT22;387;48.772;9.186;2022-08-19T11:16:47;22.50;78.60
810;DHT22;387;48.772;9.186;2022-08-19T11:19:13;22.70;76.80
810;DHT22;387;48.772;9.186;2022-08-19T11:21:43;22.50;76.40
810;DHT22;387;48.772;9.186;2022-08-19T11:24:12;22.60;76.80
810;DHT22;387;48.772;9.186;2022-08-19T11:26:39;22.70;76.50
810;DHT22;387;48.772;9.186;2022-08-19T11:29:06;22.70;76.10
810;DHT22;387;48.772;9.186;2022-08-19T11:31:37;22.80;76.20
810;DHT22;387;48.772;9.186;2022-08-19T11:34:06;22.70;75.90
810;DHT22;387;48.772;9.186;2022-08-19T11:36:33;22.70;76.20
810;DHT22;387;48.772;9.186;2022-08-19T11:39:00;22.80;75.50
810;DHT22;387;48.772;9.186;2022-08-19T11:41:26;22.80;75.50
810;DHT22;387;48.772;9.186;2022-08-19T11:43:52;23.00;75.50
810;DHT22;387;48.772;9.186;2022-08-19T11:46:21;23.10;74.30
810;DHT22;387;48.772;9.186;2022-08-19T11:48:48;22.90;73.60
810;DHT22;387;48.772;9.186;2022-08-19T11:51:17;23.00;73.60
810;DHT22;387;48.772;9.186;2022-08-19T11:53:44;23.00;73.50
810;DHT22;387;48.772;9.186;2022-08-19T11:56:11;23.10;73.30
810;DHT22;387;48.772;9.186;2022-08-19T11:58:38;23.10;73.50
810;DHT22;387;48.772;9.186;2022-08-19T12:01:12;23.10;73.00
810;DHT22;387;48.772;9.186;2022-08-19T12:03:40;23.20;72.60
810;DHT22;387;48.772;9.186;2022-08-19T12:06:07;23.20;72.90
810;DHT22;387;48.772;9.186;2022-08-19T12:08:33;23.30;72.60
810;DHT22;387;48.772;9.186;2022-08-19T12:10:59;23.30;72.10
810;DHT22;387;48.772;9.186;2022-08-19T12:13:29;23.20;72.40
810;DHT22;387;48.772;9.186;2022-08-19T12:15:56;23.20;72.60
810;DHT22;387;48.772;9.186;2022-08-19T12:18:22;23.30;72.90
810;DHT22;387;48.772;9.186;2022-08-19T12:20:50;23.30;72.70
810;DHT22;387;48.772;9.186;2022-08-19T12:23:16;23.30;72.40
810;DHT22;387;48.772;9.186;2022-08-19T12:25:47;23.40;72.70
810;DHT22;387;48.772;9.186;2022-08-19T12:28:20;23.50;73.60
810;DHT22;387;48.772;9.186;2022-08-19T12:30:47;23.70;74.20
810;DHT22;387;48.772;9.186;2022-08-19T12:33:13;23.70;74.50
810;DHT22;387;48.772;9.186;2022-08-19T12:35:43;23.70;74.60
810;DHT22;387;48.772;9.186;2022-08-19T12:38:10;23.80;74.30
810;DHT22;387;48.772;9.186;2022-08-19T12:40:36;23.90;74.30
810;DHT22;387;48.772;9.186;2022-08-19T12:43:02;24.00;74.60
810;DHT22;387;48.772;9.186;2022-08-19T12:45:28;23.90;75.70
810;DHT22;387;48.772;9.186;2022-08-19T12:47:54;23.70;77.40
810;DHT22;387;48.772;9.186;2022-08-19T12:50:19;23.60;78.90
810;DHT22;387;48.772;9.186;2022-08-19T12:52:47;23.40;79.60
810;DHT22;387;48.772;9.186;2022-08-19T12:55:13;23.20;80.50
810;DHT22;387;48.772;9.186;2022-08-19T12:57:39;23.10;80.90
810;DHT22;387;48.772;9.186;2022-08-19T13:00:15;23.10;80.80
810;DHT22;387;48.772;9.186;2022-08-19T13:02:44;23.10;80.90
810;DHT22;387;48.772;9.186;2022-08-19T13:05:16;23.20;81.70
810;DHT22;387;48.772;9.186;2022-08-19T13:07:42;23.30;81.40
810;DHT22;387;48.772;9.186;2022-08-19T13:10:14;23.40;81.50
810;DHT22;387;48.772;9.186;2022-08-19T13:12:42;23.40;81.80
810;DHT22;387;48.772;9.186;2022-08-19T13:15:08;23.40;81.90
810;DHT22;387;48.772;9.186;2022-08-19T13:17:35;23.30;82.50
810;DHT22;387;48.772;9.186;2022-08-19T13:20:01;23.30;82.80
810;DHT22;387;48.772;9.186;2022-08-19T13:22:28;23.30;83.30
810;DHT22;387;48.772;9.186;2022-08-19T13:24:54;23.40;83.40
810;DHT22;387;48.772;9.186;2022-08-19T13:27:19;23.30;83.60
810;DHT22;387;48.772;9.186;2022-08-19T13:29:45;23.20;84.10
810;DHT22;387;48.772;9.186;2022-08-19T13:32:30;23.10;84.90
810;DHT22;387;48.772;9.186;2022-08-19T13:35:14;22.90;85.00
810;DHT22;387;48.772;9.186;2022-08-19T13:37:40;22.80;85.60
810;DHT22;387;48.772;9.186;2022-08-19T13:42:42;22.70;86.60
810;DHT22;387;48.772;9.186;2022-08-19T13:45:08;22.60;87.00
810;DHT22;387;48.772;9.186;2022-08-19T13:47:34;22.50;87.30
810;DHT22;387;48.772;9.186;2022-08-19T13:50:04;22.40;87.30
810;DHT22;387;48.772;9.186;2022-08-19T13:52:29;22.40;87.60
810;DHT22;387;48.772;9.186;2022-08-19T13:54:55;22.20;87.80
810;DHT22;387;48.772;9.186;2022-08-19T13:57:21;22.10;88.60
810;DHT22;387;48.772;9.186;2022-08-19T13:59:47;21.90;89.30
810;DHT22;387;48.772;9.186;2022-08-19T14:02:13;21.80;89.90
810;DHT22;387;48.772;9.186;2022-08-19T14:04:38;21.70;90.10
810;DHT22;387;48.772;9.186;2022-08-19T14:07:04;21.70;90.40
810;DHT22;387;48.772;9.186;2022-08-19T14:09:30;21.60;90.60
810;DHT22;387;48.772;9.186;2022-08-19T14:11:55;21.50;90.80
810;DHT22;387;48.772;9.186;2022-08-19T14:14:21;21.60;91.00
810;DHT22;387;48.772;9.186;2022-08-19T14:16:47;21.60;90.80
810;DHT22;387;48.772;9.186;2022-08-19T14:19:13;21.70;90.50
810;DHT22;387;48.772;9.186;2022-08-19T14:21:39;21.80;90.20
810;DHT22;387;48.772;9.186;2022-08-19T14:24:06;21.90;89.70
810;DHT22;387;48.772;9.186;2022-08-19T14:26:32;22.00;88.70
810;DHT22;387;48.772;9.186;2022-08-19T14:28:58;21.90;88.60
810;DHT22;387;48.772;9.186;2022-08-19T14:31:24;22.00;88.00
810;DHT22;387;48.772;9.186;2022-08-19T14:33:51;22.10;87.60
810;DHT22;387;48.772;9.186;2022-08-19T14:36:17;22.20;87.10
810;DHT22;387;48.772;9.186;2022-08-19T14:38:43;22.10;87.60
810;DHT22;387;48.772;9.186;2022-08-19T14:41:17;22.20;87.70
810;DHT22;387;48.772;9.186;2022-08-19T14:43:49;22.30;87.10
810;DHT22;387;48.772;9.186;2022-08-19T14:46:18;22.40;86.50
810;DHT22;387;48.772;9.186;2022-08-19T14:48:46;22.60;85.30
810;DHT22;387;48.772;9.186;2022-08-19T14:51:12;22.80;83.60
810;DHT22;387;48.772;9.186;2022-08-19T14:53:39;22.90;82.20
810;DHT22;387;48.772;9.186;2022-08-19T14:56:13;22.80;82.10
810;DHT22;387;48.772;9.186;2022-08-19T14:58:40;22.90;82.40
810;DHT22;387;48.772;9.186;2022-08-19T15:01:07;23.00;82.50
810;DHT22;387;48.772;9.186;2022-08-19T15:03:33;23.00;82.50
810;DHT22;387;48.772;9.186;2022-08-19T15:06:00;23.10;82.70
810;DHT22;387;48.772;9.186;2022-08-19T15:08:28;23.20;82.40
810;DHT22;387;48.772;9.186;2022-08-19T15:10:54;23.30;81.70
810;DHT22;387;48.772;9.186;2022-08-19T15:13:20;23.40;81.40
810;DHT22;387;48.772;9.186;2022-08-19T15:15:47;23.60;81.20
810;DHT22;387;48.772;9.186;2022-08-19T15:18:13;23.80;80.20
810;DHT22;387;48.772;9.186;2022-08-19T15:20:38;24.00;79.50
810;DHT22;387;48.772;9.186;2022-08-19T15:23:05;24.10;78.60
810;DHT22;387;48.772;9.186;2022-08-19T15:25:31;24.10;78.10
810;DHT22;387;48.772;9.186;2022-08-19T15:27:58;24.10;78.30
810;DHT22;387;48.772;9.186;2022-08-19T15:30:27;24.20;78.00
810;DHT22;387;48.772;9.186;2022-08-19T15:32:53;24.30;77.80
810;DHT22;387;48.772;9.186;2022-08-19T15:35:20;24.40;77.00
810;DHT22;387;48.772;9.186;2022-08-19T15:37:53;24.30;77.10
810;DHT22;387;48.772;9.186;2022-08-19T15:40:20;24.30;77.30
810;DHT22;387;48.772;9.186;2022-08-19T15:42:46;24.40;77.00
810;DHT22;387;48.772;9.186;2022-08-19T15:45:18;24.40;77.40
810;DHT22;387;48.772;9.186;2022-08-19T15:47:44;24.20;79.20
810;DHT22;387;48.772;9.186;2022-08-19T15:50:18;24.00;80.30
810;DHT22;387;48.772;9.186;2022-08-19T15:52:50;24.00;80.50
810;DHT22;387;48.772;9.186;2022-08-19T15:55:21;24.10;80.80
810;DHT22;387;48.772;9.186;2022-08-19T15:57:47;24.30;80.20
810;DHT22;387;48.772;9.186;2022-08-19T16:00:31;24.30;79.70
810;DHT22;387;48.772;9.186;2022-08-19T16:03:16;24.10;80.30
810;DHT22;387;48.772;9.186;2022-08-19T16:06:00;23.90;81.50
810;DHT22;387;48.772;9.186;2022-08-19T16:08:45;24.00;80.60
810;DHT22;387;48.772;9.186;2022-08-19T16:11:13;24.30;80.30
810;DHT22;387;48.772;9.186;2022-08-19T16:13:40;24.50;78.90
810;DHT22;387;48.772;9.186;2022-08-19T16:16:06;24.60;78.40
810;DHT22;387;48.772;9.186;2022-08-19T16:18:32;24.60;78.60
810;DHT22;387;48.772;9.186;2022-08-19T16:21:04;24.50;78.90
810;DHT22;387;48.772;9.186;2022-08-19T16:23:31;24.50;78.90
810;DHT22;387;48.772;9.186;2022-08-19T16:25:57;24.50;78.40
810;DHT22;387;48.772;9.186;2022-08-19T16:28:22;24.30;79.00
810;DHT22;387;48.772;9.186;2022-08-19T16:30:48;24.20;79.70
810;DHT22;387;48.772;9.186;2022-08-19T16:33:14;24.00;80.50
810;DHT22;387;48.772;9.186;2022-08-19T16:35:39;23.90;81.50
810;DHT22;387;48.772;9.186;2022-08-19T16:38:05;23.90;81.40
810;DHT22;387;48.772;9.186;2022-08-19T16:40:32;23.70;81.80
810;DHT22;387;48.772;9.186;2022-08-19T16:42:57;23.70;81.80
810;DHT22;387;48.772;9.186;2022-08-19T16:45:23;23.60;81.90
810;DHT22;387;48.772;9.186;2022-08-19T16:47:49;23.30;82.70
810;DHT22;387;48.772;9.186;2022-08-19T16:50:16;23.30;82.80
810;DHT22;387;48.772;9.186;2022-08-19T16:52:42;23.10;83.70
810;DHT22;387;48.772;9.186;2022-08-19T16:55:07;22.90;84.70